Time;durP1;ratioP1;P1;durP2;ratioP2;P2;SDS_P1;SDS_P2;PMS_P1;PMS_P2;Temp;Humidity;BMP_temperature;BMP_pressure;BME280_temperature;BME280_humidity;BME280_pressure;Samples;Min_cycle;Max_cycle;Signal;HPM_P1;HPM_P2
2023/06/24 00:00:33;;;;;;;;;4.00;4.00;;;;;29.04;39.33;102458.22;5074658;28;45296;-70
2023/06/24 00:03:02;;;;;;;;;5.33;4.00;;;;;29.05;39.09;102453.69;5077064;28;45322;-70
2023/06/24 00:05:27;;;;;;;;;5.00;5.00;;;;;29.05;39.64;102445.66;5076682;28;46392;-70
2023/06/24 00:07:52;;;;;;;;;4.00;4.00;;;;;29.05;39.39;102454.53;5076620;28;45379;-72
2023/06/24 00:10:18;;;;;;;;;4.67;4.67;;;;;29.03;39.54;102451.22;5077120;28;45290;-72
2023/06/24 00:12:45;;;;;;;;;4.00;4.00;;;;;29.05;38.94;102449.16;5076602;28;45280;-72
2023/06/24 00:15:10;;;;;;;;;5.67;5.67;;;;;29.06;39.25;102450.00;5076732;28;45285;-73
2023/06/24 00:17:36;;;;;;;;;3.67;3.00;;;;;29.04;39.30;102441.34;5076635;28;45279;-72
2023/06/24 00:20:04;;;;;;;;;3.33;3.33;;;;;29.06;39.44;102441.97;5076620;28;45284;-73
2023/06/24 00:22:29;;;;;;;;;4.00;4.00;;;;;29.06;39.63;102444.66;5076774;28;45453;-72
2023/06/24 00:24:54;;;;;;;;;4.00;4.00;;;;;29.05;39.66;102441.13;5076448;28;45949;-72
2023/06/24 00:27:20;;;;;;;;;5.00;4.67;;;;;29.01;39.46;102431.81;5076321;28;45473;-72
2023/06/24 00:29:45;;;;;;;;;4.00;4.00;;;;;29.03;39.32;102437.81;5076570;28;45478;-72
2023/06/24 00:32:10;;;;;;;;;6.67;6.67;;;;;29.05;39.46;102441.13;5076510;28;45540;-72
2023/06/24 00:34:36;;;;;;;;;6.00;4.67;;;;;29.05;39.26;102442.97;5076356;28;47153;-72
2023/06/24 00:37:03;;;;;;;;;6.67;5.00;;;;;29.04;39.09;102444.00;5076540;28;45387;-72
2023/06/24 00:39:28;;;;;;;;;2.33;2.33;;;;;29.04;39.52;102442.13;5076449;28;45442;-73
2023/06/24 00:41:53;;;;;;;;;6.33;4.67;;;;;29.04;39.46;102444.81;5076144;28;45351;-72
2023/06/24 00:44:19;;;;;;;;;6.67;6.67;;;;;29.04;39.52;102438.66;5075878;28;45977;-72
2023/06/24 00:46:45;;;;;;;;;4.67;4.67;;;;;29.04;39.40;102439.47;5076294;28;45342;-72
2023/06/24 00:49:15;;;;;;;;;3.67;3.67;;;;;29.04;39.42;102435.97;5076569;28;45269;-72
2023/06/24 00:51:50;;;;;;;;;5.67;5.00;;;;;28.98;39.14;102424.16;5061095;28;45459;-72
2023/06/24 00:54:19;;;;;;;;;3.67;3.67;;;;;29.01;39.40;102433.66;5055760;28;46110;-72
2023/06/24 00:56:45;;;;;;;;;5.67;5.67;;;;;29.04;39.46;102434.09;5055470;28;45444;-72
2023/06/24 00:59:15;;;;;;;;;5.67;5.00;;;;;29.03;39.54;102431.63;5062221;28;45471;-72
2023/06/24 01:01:41;;;;;;;;;3.33;3.33;;;;;29.02;39.24;102432.63;5076188;28;45331;-72
2023/06/24 01:04:07;;;;;;;;;5.33;5.33;;;;;29.01;39.87;102431.81;5076007;28;45340;-73
2023/06/24 01:06:34;;;;;;;;;4.00;4.00;;;;;29.02;39.59;102437.97;5074837;28;45393;-72
2023/06/24 01:09:02;;;;;;;;;5.00;3.00;;;;;28.99;39.32;102433.84;5076106;28;45284;-72
2023/06/24 01:11:28;;;;;;;;;5.00;5.00;;;;;29.03;39.51;102436.97;5075684;28;45362;-72
2023/06/24 01:13:54;;;;;;;;;5.00;5.00;;;;;29.03;39.25;102435.13;5075799;28;46110;-72
2023/06/24 01:16:30;;;;;;;;;3.67;3.33;;;;;29.04;39.11;102436.78;5075805;28;45340;-72
2023/06/24 01:19:06;;;;;;;;;5.00;5.00;;;;;29.03;39.05;102428.94;5075887;28;45388;-72
2023/06/24 01:21:54;;;;;;;;;5.00;5.00;;;;;29.02;39.51;102428.09;5075956;28;45455;-72
2023/06/24 01:24:50;;;;;;;;;3.67;3.67;;;;;29.04;39.10;102431.41;5074308;28;46455;-72
2023/06/24 01:27:31;;;;;;;;;4.00;4.00;;;;;29.04;39.37;102425.25;5057599;28;45340;-72
2023/06/24 01:30:09;;;;;;;;;4.67;4.67;;;;;29.05;39.22;102421.53;5075669;28;45291;-72
2023/06/24 01:32:41;;;;;;;;;4.00;4.00;;;;;29.03;38.92;102429.78;5075649;28;45514;-73
2023/06/24 01:35:14;;;;;;;;;4.67;4.67;;;;;29.03;39.62;102424.41;5075875;28;46623;-72
2023/06/24 01:37:51;;;;;;;;;5.00;4.00;;;;;29.02;39.53;102428.09;5075574;28;45268;-72
2023/06/24 01:40:27;;;;;;;;;3.67;3.67;;;;;29.04;39.04;102423.38;5075288;28;45794;-70
2023/06/24 01:42:55;;;;;;;;;4.00;4.00;;;;;29.03;39.11;102420.91;5075678;28;45371;-72
2023/06/24 01:45:31;;;;;;;;;5.33;5.33;;;;;29.03;39.64;102418.22;5075424;28;47010;-72
2023/06/24 01:48:06;;;;;;;;;4.00;4.00;;;;;29.04;39.26;102422.56;5075827;28;45469;-72
2023/06/24 01:50:34;;;;;;;;;4.67;4.67;;;;;29.04;38.85;102425.25;5070106;28;45311;-73
2023/06/24 01:53:05;;;;;;;;;5.00;5.00;;;;;29.03;39.23;102421.75;5055370;28;45387;-70
2023/06/24 01:55:32;;;;;;;;;5.00;4.00;;;;;29.01;39.26;102417.59;5055112;28;46319;-70
2023/06/24 01:58:01;;;;;;;;;7.00;5.00;;;;;29.01;39.13;102409.56;5058639;28;45482;-70
2023/06/24 02:00:27;;;;;;;;;4.00;3.33;;;;;29.01;39.00;102412.22;5075717;28;45462;-70
2023/06/24 02:02:54;;;;;;;;;5.00;3.67;;;;;29.01;39.32;102415.75;5078900;28;45363;-70
2023/06/24 02:05:20;;;;;;;;;4.67;4.67;;;;;28.99;39.64;102407.03;5079093;28;46105;-69
2023/06/24 02:07:51;;;;;;;;;3.00;3.00;;;;;29.01;39.17;102412.22;5060633;28;45367;-69
2023/06/24 02:10:19;;;;;;;;;4.67;4.67;;;;;28.99;39.35;102404.38;5078749;28;45226;-70
2023/06/24 02:12:47;;;;;;;;;3.33;3.33;;;;;29.00;39.27;102407.88;5078776;28;45375;-70
2023/06/24 02:15:14;;;;;;;;;5.00;4.33;;;;;29.00;39.55;102406.03;5078457;28;45489;-72
2023/06/24 02:17:40;;;;;;;;;4.00;4.00;;;;;29.00;39.74;102399.84;5078817;28;45439;-72
2023/06/24 02:20:10;;;;;;;;;5.00;5.00;;;;;28.99;39.34;102404.38;5078499;28;45383;-72
2023/06/24 02:22:38;;;;;;;;;3.33;3.33;;;;;29.01;39.14;102405.03;5078511;28;45305;-73
2023/06/24 02:25:06;;;;;;;;;4.67;4.67;;;;;28.96;39.36;102392.19;5060236;28;46432;-72
2023/06/24 02:27:32;;;;;;;;;3.67;3.67;;;;;28.99;39.46;102407.03;5078433;28;45428;-72
2023/06/24 02:29:59;;;;;;;;;3.33;3.33;;;;;28.98;39.41;102401.88;5078526;28;45279;-72
2023/06/24 02:32:25;;;;;;;;;4.00;4.00;;;;;28.98;39.01;102405.41;5078451;28;45303;-72
2023/06/24 02:34:50;;;;;;;;;4.33;4.33;;;;;28.98;39.11;102405.41;5078102;28;45340;-72
2023/06/24 02:37:15;;;;;;;;;4.67;4.00;;;;;28.95;39.37;102400.41;5077983;28;45264;-72
2023/06/24 02:39:44;;;;;;;;;3.67;3.67;;;;;28.98;39.37;102412.59;5078413;28;45332;-72
2023/06/24 02:42:11;;;;;;;;;3.00;3.00;;;;;28.97;39.51;102406.41;5078361;28;45339;-72
2023/06/24 02:44:36;;;;;;;;;5.00;3.67;;;;;28.98;39.37;102401.88;5078021;28;46246;-72
2023/06/24 02:47:02;;;;;;;;;4.00;4.00;;;;;28.98;39.60;102410.75;5078261;28;45395;-72
2023/06/24 02:49:28;;;;;;;;;3.00;3.00;;;;;28.97;39.32;102409.09;5078269;28;45336;-72
2023/06/24 02:51:54;;;;;;;;;1.00;1.00;;;;;28.97;38.91;102403.72;5060718;28;45371;-69
2023/06/24 02:54:19;;;;;;;;;3.00;3.00;;;;;28.99;39.13;102409.72;5057872;28;45380;-70
2023/06/24 02:56:45;;;;;;;;;5.00;5.00;;;;;29.00;38.80;102410.56;5057735;28;45304;-70
2023/06/24 02:59:11;;;;;;;;;3.67;3.67;;;;;28.99;39.03;102409.72;5064152;28;45420;-70
2023/06/24 03:01:39;;;;;;;;;3.00;3.00;;;;;29.00;39.04;102413.25;5077900;28;45438;-70
2023/06/24 03:04:05;;;;;;;;;4.00;4.00;;;;;29.01;39.20;102409.56;5077847;28;47191;-70
2023/06/24 03:06:32;;;;;;;;;3.67;3.67;;;;;29.00;39.25;102414.06;5077183;28;45396;-72
2023/06/24 03:08:58;;;;;;;;;3.00;3.00;;;;;29.00;39.24;102407.88;5078057;28;45220;-70
2023/06/24 03:11:25;;;;;;;;;3.00;3.00;;;;;29.00;39.20;102411.41;5077832;28;45221;-70
2023/06/24 03:13:51;;;;;;;;;4.00;4.00;;;;;28.99;38.94;102411.59;5077839;28;45350;-70
2023/06/24 03:16:16;;;;;;;;;4.00;4.00;;;;;28.98;39.25;102408.09;5077522;28;45537;-70
2023/06/24 03:18:42;;;;;;;;;5.33;4.33;;;;;28.99;39.28;102409.72;5071249;28;45462;-69
2023/06/24 03:21:11;;;;;;;;;3.33;3.33;;;;;28.98;39.17;102418.81;5056675;28;45297;-70
2023/06/24 03:23:36;;;;;;;;;4.00;4.00;;;;;28.98;39.15;102416.13;5057125;28;46881;-69
2023/06/24 03:26:02;;;;;;;;;4.00;4.00;;;;;29.00;39.10;102416.75;5057300;28;45417;-69
2023/06/24 03:28:31;;;;;;;;;5.00;4.00;;;;;28.99;38.70;102412.41;5057238;28;45340;-70
2023/06/24 03:30:57;;;;;;;;;3.00;3.00;;;;;28.98;38.69;102416.13;5057207;28;45366;-70
2023/06/24 03:33:24;;;;;;;;;4.33;3.33;;;;;28.96;38.92;102407.44;5057242;28;46398;-69
2023/06/24 03:35:49;;;;;;;;;4.00;4.00;;;;;28.96;38.92;102412.81;5056869;28;45266;-70
2023/06/24 03:38:15;;;;;;;;;4.00;4.00;;;;;28.96;39.32;102410.94;5057146;28;45291;-70
2023/06/24 03:40:40;;;;;;;;;3.33;3.33;;;;;28.95;39.47;102411.13;5057144;28;45364;-70
2023/06/24 03:43:05;;;;;;;;;3.67;3.00;;;;;28.89;38.81;102407.38;5057083;28;45408;-70
2023/06/24 03:45:31;;;;;;;;;4.00;4.00;;;;;28.92;39.44;102416.88;5057088;28;45348;-70
2023/06/24 03:47:56;;;;;;;;;2.67;2.67;;;;;28.94;39.41;102423.69;5056950;28;45286;-70
2023/06/24 03:50:21;;;;;;;;;4.00;4.00;;;;;28.90;39.31;102418.91;5056622;28;45257;-70
2023/06/24 03:52:46;;;;;;;;;6.00;5.00;;;;;28.93;39.25;102415.84;5056887;28;45248;-70
2023/06/24 03:55:12;;;;;;;;;4.33;4.33;;;;;28.93;39.52;102421.22;5056795;28;45271;-70
2023/06/24 03:57:37;;;;;;;;;6.67;5.00;;;;;28.91;39.64;102413.34;5057151;28;45408;-72
2023/06/24 04:00:15;;;;;;;;;3.00;3.00;;;;;28.90;39.48;102410.88;5070574;28;45364;-72
2023/06/24 04:02:41;;;;;;;;;3.33;3.33;;;;;28.91;39.35;102416.03;5076892;28;47196;-72
2023/06/24 04:05:07;;;;;;;;;4.00;4.00;;;;;28.91;38.87;102416.03;5076684;28;45347;-72
2023/06/24 04:07:35;;;;;;;;;2.33;2.33;;;;;28.92;39.32;102422.22;5075568;28;45311;-70
2023/06/24 04:10:08;;;;;;;;;4.00;4.00;;;;;28.93;39.27;102414.03;5077199;28;45496;-70
2023/06/24 04:12:34;;;;;;;;;4.00;4.00;;;;;28.93;39.36;102421.22;5076608;28;47016;-70
2023/06/24 04:15:00;;;;;;;;;3.00;3.00;;;;;28.95;39.31;102424.53;5076623;28;45407;-70
2023/06/24 04:17:25;;;;;;;;;2.67;2.67;;;;;28.95;38.73;102428.03;5076831;28;45414;-70
2023/06/24 04:19:50;;;;;;;;;3.00;3.00;;;;;28.92;39.39;102415.03;5075445;28;45449;-70
2023/06/24 04:22:16;;;;;;;;;5.00;3.00;;;;;28.98;39.34;102432.19;5076685;28;46422;-70
2023/06/24 04:24:42;;;;;;;;;3.00;3.00;;;;;28.98;38.92;102420.66;5076695;28;46055;-70
2023/06/24 04:27:08;;;;;;;;;5.00;4.33;;;;;29.00;39.15;102429.31;5076685;28;45355;-69
2023/06/24 04:29:33;;;;;;;;;3.00;3.00;;;;;28.99;38.72;102425.81;5076717;28;45426;-70
2023/06/24 04:31:58;;;;;;;;;4.33;3.00;;;;;29.01;39.06;102434.50;5076266;28;51380;-69
2023/06/24 04:34:23;;;;;;;;;4.00;4.00;;;;;29.02;38.71;102433.47;5076271;28;45374;-70
2023/06/24 04:36:49;;;;;;;;;3.33;3.33;;;;;29.04;38.88;102431.41;5076570;28;45321;-70
2023/06/24 04:39:14;;;;;;;;;6.00;6.00;;;;;29.04;39.09;102423.38;5076416;28;45424;-72
2023/06/24 04:41:39;;;;;;;;;3.67;3.67;;;;;29.07;39.24;102430.22;5076495;28;46804;-72
2023/06/24 04:44:05;;;;;;;;;3.33;3.33;;;;;29.06;38.51;102420.53;5076512;28;45391;-72
2023/06/24 04:46:32;;;;;;;;;2.00;2.00;;;;;29.11;38.79;102417.31;5076366;28;45415;-72
2023/06/24 04:48:58;;;;;;;;;5.00;3.33;;;;;29.14;38.72;102427.66;5076094;28;45454;-72
2023/06/24 04:51:23;;;;;;;;;4.00;4.00;;;;;29.17;39.02;102424.59;5063219;28;45346;-72
2023/06/24 04:53:48;;;;;;;;;4.33;4.33;;;;;29.20;38.81;102423.38;5056126;28;45336;-72
2023/06/24 04:56:14;;;;;;;;;3.33;3.33;;;;;29.20;38.87;102421.50;5056084;28;45282;-72
2023/06/24 04:58:39;;;;;;;;;3.00;3.00;;;;;29.22;38.60;102424.00;5057882;28;45302;-72
2023/06/24 05:01:04;;;;;;;;;5.67;5.67;;;;;29.24;38.49;102430.00;5076160;28;45376;-72
2023/06/24 05:03:30;;;;;;;;;4.00;4.00;;;;;29.27;38.63;102432.31;5075866;28;45312;-72
2023/06/24 05:05:55;;;;;;;;;4.00;4.00;;;;;29.27;38.56;102429.63;5076209;28;45434;-73
2023/06/24 05:08:20;;;;;;;;;3.33;2.33;;;;;29.27;38.38;102432.31;5076144;28;45477;-72
2023/06/24 05:10:46;;;;;;;;;3.33;3.33;;;;;29.29;38.53;102431.09;5075929;28;47118;-72
2023/06/24 05:13:11;;;;;;;;;3.00;3.00;;;;;29.33;38.40;102430.72;5076015;28;47381;-72
2023/06/24 05:15:36;;;;;;;;;4.00;4.00;;;;;29.34;38.42;102422.47;5075667;28;47530;-72
2023/06/24 05:18:02;;;;;;;;;3.33;3.33;;;;;29.37;38.45;102421.25;5075596;28;45257;-72
2023/06/24 05:20:27;;;;;;;;;3.00;3.00;;;;;29.37;38.51;102413.22;5075920;28;45289;-72
2023/06/24 05:22:53;;;;;;;;;4.33;4.33;;;;;29.38;38.40;102409.53;5075938;28;45284;-73
2023/06/24 05:25:18;;;;;;;;;4.00;4.00;;;;;29.42;38.40;102416.16;5075995;28;45353;-72
2023/06/24 05:27:44;;;;;;;;;5.67;3.33;;;;;29.46;38.41;102422.75;5075965;28;45367;-72
2023/06/24 05:30:10;;;;;;;;;4.00;4.00;;;;;29.49;38.20;102425.06;5077127;28;46337;-72
2023/06/24 05:32:35;;;;;;;;;3.00;3.00;;;;;29.51;38.46;102427.53;5078834;28;45467;-72
2023/06/24 05:35:00;;;;;;;;;5.25;3.25;;;;;29.55;38.28;102425.31;5079570;28;45163;-72
2023/06/24 05:37:26;;;;;;;;;4.00;4.00;;;;;29.59;38.01;102429.25;5079464;28;45370;-72
2023/06/24 05:39:51;;;;;;;;;4.00;3.33;;;;;29.63;38.12;102430.53;5079164;28;46185;-73
2023/06/24 05:42:17;;;;;;;;;2.67;2.67;;;;;29.68;38.22;102436.16;5079346;28;45388;-72
2023/06/24 05:44:42;;;;;;;;;5.00;5.00;;;;;29.72;37.82;102433.94;5079284;28;45320;-73
2023/06/24 05:47:07;;;;;;;;;4.33;4.33;;;;;29.76;37.52;102440.56;5060763;28;45398;-72
2023/06/24 05:49:33;;;;;;;;;4.00;3.00;;;;;29.82;37.73;102447.81;5078912;28;45361;-72
2023/06/24 05:51:59;;;;;;;;;4.00;4.00;;;;;29.87;37.84;102446.44;5061339;28;45347;-72
2023/06/24 05:54:24;;;;;;;;;4.33;4.00;;;;;29.92;38.02;102441.31;5059127;28;45337;-72
2023/06/24 05:56:49;;;;;;;;;3.00;3.00;;;;;29.97;37.61;102441.53;5058636;28;45343;-72
2023/06/24 05:59:15;;;;;;;;;4.33;3.33;;;;;30.02;37.66;102439.09;5065324;28;46055;-73
2023/06/24 06:01:40;;;;;;;;;3.33;3.33;;;;;30.10;37.43;102445.34;5078887;28;45403;-72
2023/06/24 06:04:05;;;;;;;;;3.67;3.67;;;;;30.17;37.20;102441.66;5079380;28;45309;-72
2023/06/24 06:06:31;;;;;;;;;4.00;4.00;;;;;30.30;37.15;102437.38;5079181;28;45371;-72
2023/06/24 06:08:57;;;;;;;;;4.00;3.00;;;;;30.36;36.74;102428.56;5078999;28;46144;-73
2023/06/24 06:11:22;;;;;;;;;3.67;3.67;;;;;30.50;36.81;102436.66;5078884;28;45446;-73
2023/06/24 06:13:48;;;;;;;;;5.33;5.00;;;;;30.55;36.38;102430.72;5078893;28;45376;-73
2023/06/24 06:16:13;;;;;;;;;6.00;4.33;;;;;30.62;36.81;102432.41;5078336;27;45443;-73
2023/06/24 06:18:39;;;;;;;;;4.67;4.00;;;;;30.66;36.74;102431.97;5077841;28;45478;-73
2023/06/24 06:21:04;;;;;;;;;2.00;2.00;;;;;30.66;36.64;102424.75;5078570;28;45259;-73
2023/06/24 06:23:29;;;;;;;;;4.67;4.67;;;;;30.66;36.58;102435.50;5078845;28;45331;-73
2023/06/24 06:25:55;;;;;;;;;4.00;4.00;;;;;30.66;36.84;102432.81;5078820;28;45383;-72
2023/06/24 06:28:21;;;;;;;;;4.00;4.00;;;;;30.68;36.99;102443.38;5078308;27;45657;-72
2023/06/24 06:30:46;;;;;;;;;1.33;1.33;;;;;30.66;36.91;102434.66;5077965;28;45427;-72
2023/06/24 06:33:11;;;;;;;;;3.67;3.33;;;;;30.63;36.62;102439.41;5078548;28;45360;-72
2023/06/24 06:35:37;;;;;;;;;2.00;2.00;;;;;30.62;36.87;102435.09;5078584;28;45378;-72
2023/06/24 06:38:02;;;;;;;;;1.33;1.33;;;;;30.64;36.81;102434.88;5059861;28;57352;-72
2023/06/24 06:40:28;;;;;;;;;4.33;4.33;;;;;30.63;36.52;102430.53;5078395;28;45359;-72
2023/06/24 06:42:54;;;;;;;;;3.33;3.33;;;;;30.63;36.47;102434.03;5077787;28;45296;-72
2023/06/24 06:45:19;;;;;;;;;3.00;3.00;;;;;30.63;36.82;102431.34;5078026;28;45289;-72
2023/06/24 06:47:44;;;;;;;;;4.00;4.00;;;;;30.56;36.65;102419.75;5078303;28;45343;-72
2023/06/24 06:50:10;;;;;;;;;4.33;3.33;;;;;30.63;36.92;102425.97;5075627;28;45375;-72
2023/06/24 06:52:36;;;;;;;;;4.00;4.00;;;;;30.64;36.56;102429.50;5058179;28;45877;-72
2023/06/24 06:55:02;;;;;;;;;4.33;3.67;;;;;30.65;36.71;102427.66;5039950;28;45452;-72
2023/06/24 06:57:27;;;;;;;;;2.00;2.00;;;;;30.61;36.45;102417.31;5057530;28;46397;-72
2023/06/24 06:59:53;;;;;;;;;5.33;4.33;;;;;30.64;36.82;102432.19;5069581;28;45250;-72
2023/06/24 07:02:18;;;;;;;;;2.67;2.67;;;;;30.63;36.63;102423.28;5078196;28;45250;-72
2023/06/24 07:04:44;;;;;;;;;3.33;3.33;;;;;30.61;36.53;102417.31;5078211;28;45384;-72
2023/06/24 07:07:09;;;;;;;;;4.33;4.33;;;;;30.60;36.57;102412.16;5077817;28;46391;-71
2023/06/24 07:09:35;;;;;;;;;2.67;2.67;;;;;30.66;36.64;102427.44;5077721;28;45200;-72
2023/06/24 07:12:01;;;;;;;;;4.67;4.00;;;;;30.63;36.58;102425.97;5078016;28;45238;-71
2023/06/24 07:14:26;;;;;;;;;3.00;3.00;;;;;30.67;36.41;102431.78;5077544;28;45384;-72
2023/06/24 07:16:52;;;;;;;;;2.33;2.33;;;;;30.68;36.86;102430.75;5072605;28;46828;-72
2023/06/24 07:19:17;;;;;;;;;4.33;4.33;;;;;30.66;36.82;102419.38;5077769;27;45396;-72
2023/06/24 07:21:42;;;;;;;;;4.00;4.00;;;;;30.69;36.94;102423.53;5077871;28;45371;-72
2023/06/24 07:24:08;;;;;;;;;2.33;2.33;;;;;30.69;36.71;102432.41;5077840;27;45354;-71
2023/06/24 07:26:33;;;;;;;;;3.33;3.33;;;;;30.69;36.72;102429.72;5077546;28;46153;-72
2023/06/24 07:28:59;;;;;;;;;5.00;5.00;;;;;30.70;36.84;102442.13;5077220;27;45342;-72
2023/06/24 07:31:24;;;;;;;;;9.67;5.67;;;;;30.70;36.64;102433.25;5077719;28;45382;-72
2023/06/24 07:33:49;;;;;;;;;1.67;1.67;;;;;30.69;36.74;102431.56;5077650;28;45416;-72
2023/06/24 07:36:15;;;;;;;;;4.67;4.00;;;;;30.69;36.99;102421.66;5076061;28;48400;-72
2023/06/24 07:38:40;;;;;;;;;3.67;3.33;;;;;30.69;36.52;102424.34;5077362;27;45404;-72
2023/06/24 07:41:05;;;;;;;;;3.67;3.67;;;;;30.69;36.74;102412.78;5075800;28;45307;-72
2023/06/24 07:43:31;;;;;;;;;5.33;4.00;;;;;30.63;33.50;102428.66;5076998;27;45406;-70
2023/06/24 07:45:56;;;;;;;;;5.33;5.33;;;;;30.42;33.00;102421.56;5077064;27;47346;-71
2023/06/24 07:48:21;;;;;;;;;3.33;2.33;;;;;30.16;32.71;102421.22;5076522;27;45385;-71
2023/06/24 07:50:47;;;;;;;;;6.67;5.00;;;;;29.93;32.78;102421.47;5076171;28;45517;-71
2023/06/24 07:53:12;;;;;;;;;2.00;2.00;;;;;29.78;32.40;102416.22;5075434;28;45510;-72
2023/06/24 07:55:38;;;;;;;;;3.00;3.00;;;;;29.71;32.50;102417.03;5076091;28;58066;-71
2023/06/24 07:58:04;;;;;;;;;2.67;2.67;;;;;29.67;32.34;102422.91;5076076;27;45513;-71
2023/06/24 08:00:30;;;;;;;;;3.67;3.67;;;;;29.60;32.34;102421.03;5076088;27;45549;-71
2023/06/24 08:02:57;;;;;;;;;3.67;3.67;;;;;29.55;32.52;102417.28;5073558;28;45420;-71
2023/06/24 08:05:23;;;;;;;;;4.00;4.00;;;;;29.49;32.36;102411.66;5076266;27;46304;-71
2023/06/24 08:07:50;;;;;;;;;2.00;2.00;;;;;29.43;32.71;102411.63;5076087;28;45387;-72
2023/06/24 08:10:15;;;;;;;;;3.00;3.00;;;;;29.40;32.29;102416.34;5075978;27;45311;-71
2023/06/24 08:12:41;;;;;;;;;4.00;4.00;;;;;29.36;32.35;102400.81;5076089;27;45328;-71
2023/06/24 08:15:06;;;;;;;;;4.67;2.00;;;;;29.28;32.16;102391.06;5075956;27;46090;-71
2023/06/24 08:17:32;;;;;;;;;3.67;3.67;;;;;29.25;32.60;102400.31;5059177;28;45234;-74
2023/06/24 08:19:58;;;;;;;;;4.33;4.00;;;;;29.27;32.77;102392.09;5056128;28;45397;-72
2023/06/24 08:22:23;;;;;;;;;3.33;3.33;;;;;29.24;32.52;102400.53;5056602;28;45306;-72
2023/06/24 08:24:48;;;;;;;;;4.67;4.00;;;;;29.21;32.83;102384.81;5056214;28;46393;-71
2023/06/24 08:27:14;;;;;;;;;4.00;4.00;;;;;29.20;32.78;102385.84;5063328;28;45428;-72
2023/06/24 08:29:39;;;;;;;;;4.00;4.00;;;;;29.20;33.22;102392.03;5056416;28;45376;-72
2023/06/24 08:32:06;;;;;;;;;4.00;4.00;;;;;29.18;32.95;102384.19;5056259;28;45332;-73
2023/06/24 08:34:32;;;;;;;;;3.00;3.00;;;;;29.20;32.60;102393.91;5055763;28;46212;-72
2023/06/24 08:36:57;;;;;;;;;4.33;3.00;;;;;29.16;32.76;102390.75;5038174;28;45578;-72
2023/06/24 08:39:22;;;;;;;;;4.00;4.00;;;;;29.17;32.81;102390.56;5055963;28;45449;-72
2023/06/24 08:41:48;;;;;;;;;3.00;3.00;;;;;29.17;33.05;102387.88;5056342;28;45340;-73
2023/06/24 08:44:13;;;;;;;;;3.00;3.00;;;;;29.19;32.69;102385.03;5056000;28;45396;-72
2023/06/24 08:46:39;;;;;;;;;5.33;4.67;;;;;29.20;33.01;102380.50;5056118;28;45345;-72
2023/06/24 08:49:24;;;;;;;;;2.33;1.67;;;;;29.22;32.88;102387.31;5056111;28;45344;-73
2023/06/24 08:52:07;;;;;;;;;4.00;4.00;;;;;29.18;32.97;102384.19;5056172;28;45333;-72
2023/06/24 08:54:36;;;;;;;;;3.00;3.00;;;;;29.13;33.19;102377.75;5055446;28;45435;-72
2023/06/24 08:57:04;;;;;;;;;4.33;4.00;;;;;29.12;32.89;102376.91;5055788;28;45455;-72
2023/06/24 08:59:31;;;;;;;;;4.00;4.00;;;;;29.11;32.36;102369.91;5055625;28;45298;-72
2023/06/24 09:01:56;;;;;;;;;3.67;3.00;;;;;29.13;32.99;102377.75;5055867;28;45285;-72
2023/06/24 09:04:21;;;;;;;;;4.33;4.33;;;;;29.17;32.77;102377.16;5055473;28;45333;-72
2023/06/24 09:06:47;;;;;;;;;4.00;4.00;;;;;29.09;33.11;102353.19;5075751;28;45356;-74
2023/06/24 09:09:22;;;;;;;;;4.00;3.00;;;;;29.19;32.73;102366.25;5075661;28;45578;-73
2023/06/24 09:11:52;;;;;;;;;4.00;4.00;;;;;29.25;32.72;102370.03;5075801;28;45404;-73
2023/06/24 09:14:17;;;;;;;;;3.00;3.00;;;;;29.21;32.34;102371.41;5075864;28;46091;-74
2023/06/24 09:16:51;;;;;;;;;3.00;2.00;;;;;29.24;32.56;102366.50;5075378;28;51464;-74
2023/06/24 09:19:23;;;;;;;;;3.33;3.33;;;;;29.24;32.59;102358.47;5075995;28;45345;-73
2023/06/24 09:21:49;;;;;;;;;4.33;3.00;;;;;29.23;32.85;102362.16;5075808;28;45444;-74
2023/06/24 09:24:14;;;;;;;;;3.00;3.00;;;;;29.22;32.38;102351.66;5075257;28;46008;-74
2023/06/24 09:26:43;;;;;;;;;5.50;5.50;;;;;29.24;32.63;102355.78;5075815;28;45290;-74
2023/06/24 09:29:08;;;;;;;;;4.00;4.00;;;;;29.26;33.01;102348.38;5075586;28;45441;-72
2023/06/24 09:31:33;;;;;;;;;4.00;4.00;;;;;29.33;32.56;102351.09;5058620;28;45552;-72
2023/06/24 09:33:59;;;;;;;;;4.00;3.00;;;;;29.33;33.21;102344.94;5055195;28;46880;-72
2023/06/24 09:36:24;;;;;;;;;4.00;4.00;;;;;29.39;32.78;102346.81;5055606;28;45386;-72
2023/06/24 09:38:50;;;;;;;;;5.00;3.67;;;;;29.38;32.25;102335.25;5055189;28;45385;-71
2023/06/24 09:41:15;;;;;;;;;8.00;5.00;;;;;29.38;32.61;102339.81;5055419;28;45361;-72
2023/06/24 09:43:44;;;;;;;;;4.67;4.67;;;;;29.38;32.73;102326.41;5055122;28;46119;-72
2023/06/24 09:46:10;;;;;;;;;4.00;3.33;;;;;29.39;32.57;102326.22;5055391;28;45355;-71
2023/06/24 09:48:35;;;;;;;;;5.33;4.00;;;;;29.38;32.86;102324.53;5055087;28;45439;-72
2023/06/24 09:51:03;;;;;;;;;3.00;3.00;;;;;29.41;32.84;102317.97;5055257;28;45493;-71
2023/06/24 09:53:33;;;;;;;;;5.00;5.00;;;;;29.44;33.31;102339.03;5054706;28;46128;-72
2023/06/24 09:56:04;;;;;;;;;4.00;4.00;;;;;29.46;33.42;102317.41;5055134;28;45467;-71
2023/06/24 09:58:35;;;;;;;;;3.33;3.33;;;;;29.48;33.16;102318.88;5064530;28;45482;-71
2023/06/24 10:01:03;;;;;;;;;4.00;4.00;;;;;29.48;33.02;102305.47;5064335;28;45297;-72
2023/06/24 10:03:32;;;;;;;;;4.67;3.67;;;;;29.51;33.13;102307.72;5062785;28;45467;-72
2023/06/24 10:05:58;;;;;;;;;3.33;3.33;;;;;29.49;33.25;102299.06;5061103;28;45306;-72
2023/06/24 10:08:24;;;;;;;;;5.00;5.00;;;;;29.51;33.51;102307.72;5064311;28;45384;-72
2023/06/24 10:10:49;;;;;;;;;6.00;4.67;;;;;29.53;33.84;102304.88;5065372;28;45337;-73
2023/06/24 10:13:15;;;;;;;;;5.33;5.33;;;;;29.52;33.54;102300.50;5063299;28;46006;-73
2023/06/24 10:15:40;;;;;;;;;4.67;4.00;;;;;29.54;33.90;102298.47;5053917;28;45461;-72
2023/06/24 10:18:30;;;;;;;;;4.33;4.33;;;;;29.55;33.70;102297.44;5077539;28;45405;-72
2023/06/24 10:20:55;;;;;;;;;3.33;3.33;;;;;29.56;34.02;102298.28;5078322;28;45434;-71
2023/06/24 10:23:21;;;;;;;;;4.00;4.00;;;;;29.57;33.92;102292.72;5077530;28;46304;-72
2023/06/24 10:25:47;;;;;;;;;5.67;5.00;;;;;29.59;34.20;102300.53;5078154;27;45302;-72
2023/06/24 10:28:13;;;;;;;;;5.33;4.00;;;;;29.59;34.20;102289.81;5077575;27;45552;-72
2023/06/24 10:30:38;;;;;;;;;3.00;3.00;;;;;29.58;34.15;102280.13;5077826;28;45496;-71
2023/06/24 10:33:03;;;;;;;;;4.00;4.00;;;;;29.60;34.33;102280.75;5077918;27;45469;-72
2023/06/24 10:35:34;;;;;;;;;5.00;4.33;;;;;29.58;34.41;102275.59;5077344;27;45519;-73
2023/06/24 10:38:01;;;;;;;;;4.33;4.33;;;;;29.61;34.56;102279.75;5074942;28;45311;-72
2023/06/24 10:40:37;;;;;;;;;4.67;4.00;;;;;29.59;34.55;102269.19;5077667;27;45299;-74
2023/06/24 10:43:22;;;;;;;;;4.00;4.00;;;;;29.60;34.49;102265.50;5077621;27;46463;-75
2023/06/24 10:45:52;;;;;;;;;4.00;4.00;;;;;29.60;34.81;102260.13;5075902;28;45455;-72
2023/06/24 10:48:20;;;;;;;;;5.00;3.67;;;;;29.60;34.76;102265.50;5077745;27;45280;-73
2023/06/24 10:50:47;;;;;;;;;5.00;5.00;;;;;29.62;34.46;102266.13;5077734;27;45466;-73
2023/06/24 10:53:13;;;;;;;;;5.33;5.33;;;;;29.63;34.73;102256.22;5078097;28;46540;-74
2023/06/24 10:55:39;;;;;;;;;3.67;2.67;;;;;29.60;35.02;102254.78;5078085;28;45488;-73
2023/06/24 10:58:12;;;;;;;;;4.00;4.00;;;;;29.65;34.92;102247.97;5077066;28;45386;-74
2023/06/24 11:00:39;;;;;;;;;5.00;5.00;;;;;29.65;34.66;102251.50;5077946;27;45361;-73
2023/06/24 11:03:12;;;;;;;;;4.00;4.00;;;;;29.63;34.75;102243.66;5093562;27;48508;-73
2023/06/24 11:05:41;;;;;;;;;3.67;3.67;;;;;29.66;34.66;102246.97;5077486;28;45471;-74
2023/06/24 11:08:08;;;;;;;;;3.33;3.33;;;;;29.65;34.61;102248.81;5077649;28;45453;-71
2023/06/24 11:10:48;;;;;;;;;3.67;3.67;;;;;29.65;34.69;102239.94;5077700;27;45412;-71
2023/06/24 11:13:14;;;;;;;;;4.67;4.67;;;;;29.65;34.65;102237.25;5077737;27;45478;-70
2023/06/24 11:15:43;;;;;;;;;7.00;5.33;;;;;29.66;34.88;102233.56;5077662;27;45512;-71
2023/06/24 11:18:10;;;;;;;;;5.00;4.00;;;;;29.64;35.03;102236.41;5077724;28;45447;-71
2023/06/24 11:20:37;;;;;;;;;5.33;5.33;;;;;29.66;34.79;102234.38;5076934;28;45363;-71
2023/06/24 11:23:07;;;;;;;;;5.33;4.67;;;;;29.65;35.22;102226.53;5077581;28;46104;-72